PORT of XIAMEN

Країна: China Країна: China (CN)
Широта / Довгота: 24.503175° / 118.02925° Показати на карті Показати на карті
Місцевий час:  UTC +8
UN/LOCODE: CNXMN
Суден у порту: 142
Очікувані прибуття: 57

Останні прибуття і відбуття


Ім'я судна
Прибуття (UTC)
Прибуття (LT)
Відправлення (UTC)
Відправлення (LT)
HAI DA YUAN HE 2014-10-02 09:16:00 2014-10-02 17:16:00 2014-10-02 10:31:00 2014-10-02 18:31:00
Vessel Type: Вантажні суда  ULSAN EXPRESS 2014-10-01 03:36:00 2014-10-01 11:36:00 2014-10-02 10:28:00 2014-10-02 18:28:00
Vessel Type: Танкери  CHUNLAN 2014-10-02 10:26:00 2014-10-02 18:26:00
Vessel Type: Рибалка  MIN LONG YU 60816 2014-10-02 10:24:00 2014-10-02 18:24:00
Vessel Type: Рибалка  MIN LONG YU 60775 2014-10-02 01:38:00 2014-10-02 09:38:00 2014-10-02 10:21:00 2014-10-02 18:21:00
Vessel Type: Пасажирські судна  HAI DA YUAN XING 2014-10-02 10:17:00 2014-10-02 18:17:00
Vessel Type: Вантажні суда  CAPE NEMO 2014-10-02 02:27:00 2014-10-02 10:27:00 2014-10-02 10:15:00 2014-10-02 18:15:00
Vessel Type: Пасажирські судна  MIN XIA MEN KE 0019 2014-10-01 14:15:00 2014-10-01 22:15:00 2014-10-02 10:15:00 2014-10-02 18:15:00
Vessel Type: Пасажирські судна  COSCO STAR 2014-10-02 00:01:00 2014-10-02 08:01:00 2014-10-02 10:12:00 2014-10-02 18:12:00
Vessel Type: Вантажні суда  MIN NAN HAI SHENG116 2014-10-02 10:11:00 2014-10-02 18:11:00

Очікувані прибуття


Ім'я судна
Scheduled Arrival (UTC)
Заплановане прибуття (місцевий час)
Очікуване прибуття (UTC)
Очікуване прибуття (місцевий час)
MIN TAI 168 2014-10-01 11:00:00 2014-10-01 19:00:00
Vessel Type: Вантажні суда  SALVATORE CAFIERO 2014-10-01 11:30:00 2014-10-01 19:30:00 2014-10-02 09:55:00 2014-10-02 17:55:00
Vessel Type: Танкери  HAI DA 588 2014-10-01 12:30:00 2014-10-01 20:30:00
Vessel Type: Вантажні суда  TUO YUAN 2014-10-01 20:00:00 2014-10-02 04:00:00
Vessel Type: Танкери  NING HUA 419 2014-10-01 23:59:00 2014-10-02 07:59:00 2014-10-02 10:50:00 2014-10-02 18:50:00
Vessel Type: Танкери  HAI DA 288 2014-10-02 04:00:00 2014-10-02 12:00:00
Vessel Type: Вантажні суда  EASTERN JADE 2014-10-02 08:00:00 2014-10-02 16:00:00 2014-10-02 05:12:00 2014-10-02 13:12:00
Vessel Type: Вантажні суда  ZHONG LIANG HONG YE 2014-10-02 09:00:00 2014-10-02 17:00:00 2014-10-02 04:37:00 2014-10-02 12:37:00
Vessel Type: Вантажні суда  HUA SHENG 21 2014-10-02 09:00:00 2014-10-02 17:00:00
Vessel Type: Танкери  HAI XIN YOU 602 2014-10-02 09:00:00 2014-10-02 17:00:00

Wind Forecast


    
Час (UTC)
Швидкість
Direction
Temperature
2014-10-02 09:00:00 11 knots 111° 29°C
2014-10-02 12:00:00 8 knots 72° 26°C
2014-10-02 15:00:00 9 knots 34° 25°C
2014-10-02 18:00:00 8 knots 27° 25°C
2014-10-02 21:00:00 8 knots 32° 24°C
2014-10-03 00:00:00 11 knots 38° 26°C
2014-10-03 03:00:00 12 knots 57° 28°C
2014-10-03 06:00:00 13 knots 61° 29°C
2014-10-03 09:00:00 16 knots 61° 27°C
2014-10-03 12:00:00 14 knots 36° 25°C
2014-10-03 15:00:00 12 knots 35° 24°C
2014-10-03 18:00:00 12 knots 36° 23°C
2014-10-03 21:00:00 11 knots 17° 23°C
2014-10-04 00:00:00 11 knots 35° 24°C
2014-10-04 03:00:00 11 knots 35° 27°C
2014-10-04 06:00:00 12 knots 49° 28°C
2014-10-04 09:00:00 12 knots 60° 26°C

NO_PHOTO

No Photos for this port. Be the first to upload one!